createdAt,value
2023-04-25T00:00:41.501Z,2.00
2023-04-25T00:03:10.153Z,2.10
2023-04-25T00:05:38.224Z,2.20
2023-04-25T00:08:06.168Z,2.08
2023-04-25T00:10:33.762Z,2.08
2023-04-25T00:13:03.440Z,2.42
2023-04-25T00:15:33.636Z,2.00
2023-04-25T00:18:01.290Z,1.85
2023-04-25T00:20:28.782Z,1.87
2023-04-25T00:22:56.114Z,2.10
2023-04-25T00:25:24.465Z,2.00
2023-04-25T00:27:51.815Z,2.20
2023-04-25T00:30:19.253Z,2.42
2023-04-25T00:32:47.097Z,2.47
2023-04-25T00:35:14.926Z,2.50
2023-04-25T00:37:42.321Z,2.58
2023-04-25T00:40:10.410Z,2.45
2023-04-25T00:42:38.370Z,3.03
2023-04-25T00:45:07.412Z,2.40
2023-04-25T00:47:35.503Z,3.37
2023-04-25T00:50:02.870Z,2.92
2023-04-25T00:52:30.252Z,3.17
2023-04-25T00:54:57.900Z,3.33
2023-04-25T00:57:25.786Z,2.80
2023-04-25T00:59:53.519Z,3.08
2023-04-25T01:02:21.794Z,3.75
2023-04-25T01:04:49.332Z,3.20
2023-04-25T01:07:17.191Z,2.62
2023-04-25T01:09:44.869Z,3.65
2023-04-25T01:12:12.229Z,3.00
2023-04-25T01:14:39.574Z,3.17
2023-04-25T01:17:08.722Z,3.03
2023-04-25T01:19:36.654Z,2.92
2023-04-25T01:22:04.756Z,3.15
2023-04-25T01:24:33.208Z,3.10
2023-04-25T01:27:01.494Z,3.55
2023-04-25T01:29:28.916Z,3.17
2023-04-25T01:31:56.605Z,3.60
2023-04-25T01:34:24.007Z,3.25
2023-04-25T01:36:51.644Z,2.80
2023-04-25T01:39:19.478Z,3.17
2023-04-25T01:41:47.508Z,3.37
2023-04-25T01:44:15.049Z,3.35
2023-04-25T01:46:42.708Z,3.53
2023-04-25T01:49:10.084Z,2.92
2023-04-25T01:51:37.681Z,3.35
2023-04-25T01:54:05.367Z,3.50
2023-04-25T01:56:33.328Z,3.20
2023-04-25T01:59:00.977Z,3.05
2023-04-25T02:01:29.862Z,3.22
2023-04-25T02:03:58.676Z,3.03
2023-04-25T02:06:26.497Z,3.50
2023-04-25T02:08:54.275Z,3.25
2023-04-25T02:11:21.918Z,3.10
2023-04-25T02:13:49.982Z,3.28
2023-04-25T02:16:18.037Z,3.03
2023-04-25T02:18:45.975Z,3.03
2023-04-25T02:21:13.391Z,3.20
2023-04-25T02:23:40.772Z,3.12
2023-04-25T02:26:08.392Z,3.17
2023-04-25T02:28:36.854Z,2.95
2023-04-25T02:31:05.878Z,3.40
2023-04-25T02:33:33.247Z,3.12
2023-04-25T02:36:00.624Z,3.78
2023-04-25T02:38:28.261Z,3.20
2023-04-25T02:40:57.687Z,3.47
2023-04-25T02:43:27.074Z,3.37
2023-04-25T02:45:54.724Z,3.75
2023-04-25T02:48:22.095Z,3.20
2023-04-25T02:50:49.750Z,3.33
2023-04-25T02:53:17.345Z,3.72
2023-04-25T02:55:45.001Z,3.50
2023-04-25T02:58:12.358Z,3.42
2023-04-25T03:00:41.018Z,3.25
2023-04-25T03:03:08.469Z,3.75
2023-04-25T03:05:35.898Z,3.45
2023-04-25T03:08:03.923Z,3.05
2023-04-25T03:10:31.608Z,3.20
2023-04-25T03:12:59.737Z,3.45
2023-04-25T03:15:27.618Z,3.30
2023-04-25T03:17:55.042Z,3.22
2023-04-25T03:20:22.485Z,4.40
2023-04-25T03:22:50.285Z,3.97
2023-04-25T03:25:19.170Z,3.22
2023-04-25T03:27:46.954Z,3.35
2023-04-25T03:30:14.785Z,3.62
2023-04-25T03:32:42.592Z,3.72
2023-04-25T03:35:10.012Z,3.20
2023-04-25T03:37:37.649Z,3.03
2023-04-25T03:40:05.511Z,3.20
2023-04-25T03:42:34.528Z,3.58
2023-04-25T03:45:02.685Z,3.75
2023-04-25T03:47:30.834Z,3.30
2023-04-25T03:49:58.737Z,3.78
2023-04-25T03:52:26.554Z,2.90
2023-04-25T03:54:54.552Z,3.30
2023-04-25T03:57:22.219Z,3.70
2023-04-25T03:59:49.887Z,3.80
2023-04-25T04:02:18.793Z,3.12
2023-04-25T04:04:46.905Z,3.72
2023-04-25T04:07:14.800Z,3.53
2023-04-25T04:09:42.422Z,3.50
2023-04-25T04:12:11.541Z,3.83
2023-04-25T04:14:39.231Z,3.50
2023-04-25T04:17:07.043Z,3.70
2023-04-25T04:19:34.879Z,3.40
2023-04-25T04:22:03.024Z,3.83
2023-04-25T04:24:30.398Z,3.50
2023-04-25T04:26:58.411Z,4.05
2023-04-25T04:29:26.440Z,4.00
2023-04-25T04:31:54.675Z,4.07
2023-04-25T04:34:22.398Z,3.65
2023-04-25T04:36:49.791Z,4.32
2023-04-25T04:39:17.167Z,4.35
2023-04-25T04:41:45.026Z,4.78
2023-04-25T04:44:13.394Z,4.65
2023-04-25T04:46:42.072Z,4.50
2023-04-25T04:49:10.831Z,4.70
2023-04-25T04:51:38.852Z,4.70
2023-04-25T04:54:06.301Z,5.03
2023-04-25T04:56:34.293Z,4.37
2023-04-25T04:59:02.863Z,4.28
2023-04-25T05:01:31.272Z,5.72
2023-04-25T05:04:02.496Z,5.28
2023-04-25T05:06:32.465Z,5.37
2023-04-25T05:09:02.564Z,5.37
2023-04-25T05:11:31.213Z,5.75
2023-04-25T05:13:58.636Z,5.68
2023-04-25T05:16:26.979Z,6.60
2023-04-25T05:18:54.429Z,5.75
2023-04-25T05:21:22.449Z,6.15
2023-04-25T05:23:50.742Z,6.03
2023-04-25T05:26:18.636Z,5.78
2023-04-25T05:28:46.140Z,6.53
2023-04-25T05:31:13.934Z,6.22
2023-04-25T05:33:41.798Z,5.93
2023-04-25T05:36:09.510Z,7.37
2023-04-25T05:38:37.369Z,6.95
2023-04-25T05:41:06.007Z,6.80
2023-04-25T05:43:33.610Z,6.50
2023-04-25T05:46:01.337Z,6.50
2023-04-25T05:48:28.728Z,7.37
2023-04-25T05:50:56.500Z,6.53
2023-04-25T05:53:24.476Z,6.65
2023-04-25T05:55:52.083Z,6.60
2023-04-25T05:58:19.788Z,6.28
2023-04-25T06:00:47.529Z,6.43
2023-04-25T06:03:20.426Z,6.15
2023-04-25T06:05:48.856Z,6.30
2023-04-25T06:08:16.480Z,6.53
2023-04-25T06:10:44.140Z,7.47
2023-04-25T06:13:11.556Z,6.03
2023-04-25T06:15:39.208Z,6.82
2023-04-25T06:18:06.749Z,6.10
2023-04-25T06:20:35.128Z,5.85
2023-04-25T06:23:02.816Z,6.28
2023-04-25T06:25:30.806Z,4.97
2023-04-25T06:27:58.169Z,4.78
2023-04-25T06:30:26.782Z,4.40
2023-04-25T06:32:54.870Z,5.30
2023-04-25T06:35:22.548Z,4.82
2023-04-25T06:37:50.409Z,4.85
2023-04-25T06:40:22.335Z,4.80
2023-04-25T06:42:50.081Z,5.22
2023-04-25T06:45:21.262Z,4.55
2023-04-25T06:47:48.696Z,4.32
2023-04-25T06:50:16.431Z,4.65
2023-04-25T06:52:43.970Z,5.47
2023-04-25T06:55:11.539Z,5.03
2023-04-25T06:57:40.256Z,4.47
2023-04-25T07:00:10.664Z,4.00
2023-04-25T07:02:38.343Z,5.60
2023-04-25T07:05:06.711Z,4.07
2023-04-25T07:07:34.334Z,4.00
2023-04-25T07:10:01.805Z,3.60
2023-04-25T07:12:29.469Z,3.87
2023-04-25T07:14:56.842Z,3.50
2023-04-25T07:17:24.404Z,4.53
2023-04-25T07:19:53.030Z,3.42
2023-04-25T07:22:20.467Z,4.37
2023-04-25T07:24:49.730Z,4.10
2023-04-25T07:27:19.278Z,3.70
2023-04-25T07:29:47.401Z,3.72
2023-04-25T07:32:15.222Z,4.20
2023-04-25T07:34:44.006Z,4.00
2023-04-25T07:37:11.406Z,4.75
2023-04-25T07:39:39.571Z,4.68
2023-04-25T07:42:09.129Z,4.78
2023-04-25T07:44:39.769Z,4.20
2023-04-25T07:47:08.300Z,4.60
2023-04-25T07:49:38.692Z,4.80
2023-04-25T07:52:08.876Z,4.82
2023-04-25T07:54:36.837Z,4.60
2023-04-25T07:57:04.633Z,4.60
2023-04-25T07:59:32.170Z,4.93
2023-04-25T08:02:00.874Z,5.25
2023-04-25T08:04:28.815Z,5.28
2023-04-25T08:06:56.568Z,4.62
2023-04-25T08:09:24.078Z,4.72
2023-04-25T08:11:52.489Z,4.90
2023-04-25T08:14:20.804Z,4.97
2023-04-25T08:16:49.244Z,4.43
2023-04-25T08:19:17.021Z,5.32
2023-04-25T08:21:45.762Z,4.78
2023-04-25T08:24:14.236Z,5.10
2023-04-25T08:26:42.298Z,5.57
2023-04-25T08:29:10.665Z,5.35
2023-04-25T08:31:38.949Z,5.65
2023-04-25T08:34:07.092Z,5.12
2023-04-25T08:36:39.211Z,5.22
2023-04-25T08:39:14.466Z,5.25
2023-04-25T08:41:43.286Z,5.55
2023-04-25T08:44:11.871Z,5.22
2023-04-25T08:46:42.051Z,5.22
2023-04-25T08:49:10.584Z,6.22
2023-04-25T08:51:45.059Z,6.32
2023-04-25T08:54:28.033Z,7.00
2023-04-25T08:57:02.985Z,11.77
2023-04-25T08:59:31.052Z,5.18
2023-04-25T09:01:59.071Z,5.03
2023-04-25T09:04:27.071Z,5.00
2023-04-25T09:06:55.967Z,4.32
2023-04-25T09:09:24.834Z,5.60
2023-04-25T09:11:52.486Z,4.90
2023-04-25T09:14:26.718Z,4.75
2023-04-25T09:16:57.134Z,4.78
2023-04-25T09:19:40.489Z,4.40
2023-04-25T09:22:09.948Z,4.87
2023-04-25T09:24:45.173Z,4.80
2023-04-25T09:27:20.269Z,4.30
2023-04-25T09:29:48.644Z,5.07
2023-04-25T09:32:21.597Z,4.40
2023-04-25T09:34:51.714Z,4.97
2023-04-25T09:37:30.067Z,4.55
2023-04-25T09:40:06.923Z,4.62
2023-04-25T09:42:35.743Z,5.10
2023-04-25T09:45:03.541Z,5.12
2023-04-25T09:47:33.023Z,4.95
2023-04-25T09:50:01.205Z,5.30
2023-04-25T09:52:28.694Z,4.68
2023-04-25T09:54:56.515Z,5.45
2023-04-25T09:57:24.967Z,4.97
2023-04-25T09:59:53.737Z,5.18
2023-04-25T10:02:26.208Z,5.40
2023-04-25T10:04:56.286Z,5.28
2023-04-25T10:07:31.108Z,5.03
2023-04-25T10:10:01.232Z,5.32
2023-04-25T10:12:28.866Z,4.87
2023-04-25T10:14:56.301Z,4.68
2023-04-25T10:17:23.941Z,5.03
2023-04-25T10:19:52.237Z,4.60
2023-04-25T10:22:42.633Z,4.78
2023-04-25T10:25:10.284Z,5.10
2023-04-25T10:27:38.121Z,5.37
2023-04-25T10:30:12.158Z,4.35
2023-04-25T10:32:39.816Z,5.03
2023-04-25T10:35:13.475Z,5.00
2023-04-25T10:38:00.115Z,5.03
2023-04-25T10:40:27.711Z,5.68
2023-04-25T10:42:56.273Z,5.15
2023-04-25T10:45:23.700Z,5.70
2023-04-25T10:47:51.072Z,5.50
2023-04-25T10:50:18.809Z,4.85
2023-04-25T10:52:46.160Z,4.97
2023-04-25T10:55:13.515Z,5.37
2023-04-25T10:57:41.980Z,5.12
2023-04-25T11:00:19.598Z,6.07
2023-04-25T11:02:53.211Z,5.15
2023-04-25T11:05:30.211Z,5.85
2023-04-25T11:10:32.787Z,5.40
2023-04-25T11:13:01.065Z,5.28
2023-04-25T11:15:28.726Z,5.90
2023-04-25T11:17:56.218Z,6.60
2023-04-25T11:20:26.832Z,6.47
2023-04-25T11:22:54.219Z,6.72
2023-04-25T11:25:22.007Z,7.25
2023-04-25T11:27:57.112Z,6.80
2023-04-25T11:30:25.218Z,7.18
2023-04-25T11:32:53.207Z,6.80
2023-04-25T11:35:21.871Z,7.28
2023-04-25T11:37:49.338Z,7.68
2023-04-25T11:40:17.067Z,6.90
2023-04-25T11:42:45.420Z,6.75
2023-04-25T11:45:13.037Z,6.80
2023-04-25T11:47:40.697Z,6.80
2023-04-25T11:50:08.879Z,6.85
2023-04-25T11:52:45.377Z,7.07
2023-04-25T11:55:17.433Z,7.53
2023-04-25T11:57:53.717Z,7.28
2023-04-25T12:02:53.043Z,7.12
2023-04-25T12:05:32.241Z,7.00
2023-04-25T12:08:11.832Z,7.25
2023-04-25T12:10:44.038Z,6.90
2023-04-25T12:13:24.730Z,7.95
2023-04-25T12:15:52.359Z,7.32
2023-04-25T12:18:21.869Z,7.78
2023-04-25T12:20:49.227Z,6.95
2023-04-25T12:23:16.578Z,6.80
2023-04-25T12:25:45.655Z,8.05
2023-04-25T12:28:20.725Z,7.15
2023-04-25T12:31:05.214Z,7.97
2023-04-25T12:33:37.071Z,7.30
2023-04-25T12:36:09.613Z,7.70
2023-04-25T12:38:41.101Z,6.93
2023-04-25T12:41:09.374Z,7.32
2023-04-25T12:43:37.301Z,7.70
2023-04-25T12:46:04.795Z,8.00
2023-04-25T12:48:32.547Z,8.02
2023-04-25T12:50:59.893Z,8.00
2023-04-25T12:53:27.361Z,8.63
2023-04-25T12:58:24.650Z,7.90
2023-04-25T13:00:52.122Z,8.10
2023-04-25T13:03:19.929Z,7.90
2023-04-25T13:05:47.407Z,8.23
2023-04-25T13:08:14.820Z,8.43
2023-04-25T13:10:42.976Z,8.82
2023-04-25T13:13:10.473Z,9.07
2023-04-25T13:15:37.828Z,8.70
2023-04-25T13:18:06.933Z,8.95
2023-04-25T13:20:34.532Z,8.90
2023-04-25T13:23:02.974Z,9.27
2023-04-25T13:25:30.849Z,7.85
2023-04-25T13:27:58.246Z,8.80
2023-04-25T13:30:25.674Z,10.60
2023-04-25T13:32:53.745Z,8.48
2023-04-25T13:35:21.237Z,8.55
2023-04-25T13:37:48.598Z,8.18
2023-04-25T13:40:16.218Z,8.13
2023-04-25T13:42:45.578Z,8.93
2023-04-25T13:45:12.964Z,8.18
2023-04-25T13:47:40.665Z,8.55
2023-04-25T13:50:08.904Z,8.93
2023-04-25T13:52:36.454Z,8.45
2023-04-25T13:55:04.749Z,8.63
2023-04-25T13:57:32.592Z,8.57
2023-04-25T14:00:00.445Z,9.05
2023-04-25T14:02:28.226Z,8.68
2023-04-25T14:04:56.113Z,8.32
2023-04-25T14:07:23.547Z,8.77
2023-04-25T14:09:50.908Z,8.68
2023-04-25T14:12:18.741Z,8.10
2023-04-25T14:14:46.334Z,8.20
2023-04-25T14:17:17.534Z,7.82
2023-04-25T14:19:46.656Z,7.50
2023-04-25T14:22:14.024Z,7.32
2023-04-25T14:24:41.369Z,7.60
2023-04-25T14:27:09.229Z,7.55
2023-04-25T14:29:36.632Z,8.75
2023-04-25T14:32:04.753Z,9.07
2023-04-25T14:34:32.353Z,7.93
2023-04-25T14:36:59.769Z,7.65
2023-04-25T14:39:27.165Z,7.45
2023-04-25T14:41:54.772Z,7.82
2023-04-25T14:44:22.186Z,7.75
2023-04-25T14:46:52.553Z,7.93
2023-04-25T14:49:20.344Z,7.90
2023-04-25T14:51:48.754Z,8.07
2023-04-25T14:54:17.886Z,7.82
2023-04-25T14:56:45.533Z,7.30
2023-04-25T14:59:12.887Z,8.48
2023-04-25T15:01:40.233Z,8.10
2023-04-25T15:04:08.132Z,8.10
2023-04-25T15:06:35.614Z,8.65
2023-04-25T15:09:02.969Z,7.70
2023-04-25T15:11:30.849Z,9.00
2023-04-25T15:13:58.188Z,7.68
2023-04-25T15:16:25.550Z,9.48
2023-04-25T15:18:53.200Z,9.52
2023-04-25T15:21:20.847Z,8.00
2023-04-25T15:23:48.371Z,8.07
2023-04-25T15:26:16.555Z,7.87
2023-04-25T15:28:43.931Z,7.80
2023-04-25T15:31:11.357Z,7.43
2023-04-25T15:33:38.998Z,8.93
2023-04-25T15:36:06.793Z,8.80
2023-04-25T15:38:34.171Z,8.70
2023-04-25T15:41:02.609Z,8.85
2023-04-25T15:43:31.019Z,8.93
2023-04-25T15:45:58.506Z,9.23
2023-04-25T15:48:26.420Z,8.23
2023-04-25T15:50:53.765Z,8.00
2023-04-25T15:53:21.286Z,8.65
2023-04-25T15:55:48.934Z,7.75
2023-04-25T15:58:16.467Z,8.32
2023-04-25T16:00:43.917Z,7.50
2023-04-25T16:03:11.663Z,7.62
2023-04-25T16:05:39.452Z,6.95
2023-04-25T16:08:06.841Z,6.90
2023-04-25T16:10:34.494Z,7.30
2023-04-25T16:13:01.846Z,7.10
2023-04-25T16:15:29.194Z,7.65
2023-04-25T16:17:56.942Z,8.23
2023-04-25T16:20:24.286Z,8.32
2023-04-25T16:22:51.712Z,9.27
2023-04-25T16:25:21.721Z,8.80
2023-04-25T16:27:49.093Z,8.20
2023-04-25T16:30:16.662Z,8.23
2023-04-25T16:32:45.564Z,8.10
2023-04-25T16:35:13.185Z,8.32
2023-04-25T16:37:40.624Z,8.00
2023-04-25T16:40:09.882Z,8.43
2023-04-25T16:42:37.376Z,8.05
2023-04-25T16:45:05.203Z,8.27
2023-04-25T16:47:33.115Z,8.40
2023-04-25T16:50:01.156Z,7.75
2023-04-25T16:52:28.535Z,8.50
2023-04-25T16:54:56.455Z,8.93
2023-04-25T16:57:23.818Z,8.20
2023-04-25T16:59:52.069Z,9.18
2023-04-25T17:02:19.803Z,8.73
2023-04-25T17:04:47.590Z,8.82
2023-04-25T17:07:15.942Z,8.60
2023-04-25T17:09:43.719Z,8.05
2023-04-25T17:12:11.069Z,8.30
2023-04-25T17:14:39.064Z,9.52
2023-04-25T17:17:07.047Z,8.57
2023-04-25T17:19:34.540Z,8.93
2023-04-25T17:22:01.895Z,8.20
2023-04-25T17:24:29.479Z,8.50
2023-04-25T17:26:57.189Z,8.32
2023-04-25T17:29:24.597Z,8.82
2023-04-25T17:31:53.528Z,14.55
2023-04-25T17:34:21.488Z,13.80
2023-04-25T17:36:48.881Z,9.40
2023-04-25T17:39:17.504Z,12.32
2023-04-25T17:41:45.066Z,7.93
2023-04-25T17:44:12.449Z,8.25
2023-04-25T17:46:40.166Z,8.35
2023-04-25T17:49:07.710Z,7.50
2023-04-25T17:51:35.074Z,7.28
2023-04-25T17:54:02.977Z,7.45
2023-04-25T17:56:31.217Z,7.22
2023-04-25T17:58:59.112Z,7.10
2023-04-25T18:01:26.976Z,6.75
2023-04-25T18:03:54.833Z,7.25
2023-04-25T18:06:22.380Z,7.18
2023-04-25T18:08:50.057Z,7.32
2023-04-25T18:11:17.834Z,7.22
2023-04-25T18:13:45.192Z,6.25
2023-04-25T18:16:12.569Z,6.65
2023-04-25T18:18:43.177Z,7.32
2023-04-25T18:21:10.628Z,6.15
2023-04-25T18:23:38.604Z,6.18
2023-04-25T18:26:06.480Z,6.12
2023-04-25T18:28:34.419Z,6.70
2023-04-25T18:31:01.848Z,7.60
2023-04-25T18:33:29.569Z,7.05
2023-04-25T18:35:59.796Z,7.35
2023-04-25T18:41:10.508Z,6.80
2023-04-25T18:43:45.627Z,6.85
2023-04-25T18:46:13.337Z,6.37
2023-04-25T18:48:40.752Z,5.70
2023-04-25T18:51:08.252Z,6.45
2023-04-25T18:53:35.901Z,5.60
2023-04-25T18:56:03.276Z,5.80
2023-04-25T18:58:30.684Z,5.45
2023-04-25T19:00:58.323Z,5.93
2023-04-25T19:03:26.419Z,5.82
2023-04-25T19:05:53.967Z,5.37
2023-04-25T19:08:21.704Z,5.32
2023-04-25T19:10:49.780Z,6.30
2023-04-25T19:13:17.158Z,6.03
2023-04-25T19:15:44.772Z,5.57
2023-04-25T19:18:12.186Z,5.57
2023-04-25T19:20:39.739Z,5.30
2023-04-25T19:23:07.404Z,5.57
2023-04-25T19:25:34.863Z,5.30
2023-04-25T19:28:02.441Z,5.60
2023-04-25T19:30:30.060Z,6.10
2023-04-25T19:32:58.081Z,5.43
2023-04-25T19:35:30.619Z,5.47
2023-04-25T19:37:58.626Z,5.25
2023-04-25T19:40:26.136Z,5.30
2023-04-25T19:42:53.526Z,5.07
2023-04-25T19:45:21.571Z,5.20
2023-04-25T19:47:49.194Z,5.35
2023-04-25T19:50:16.700Z,5.22
2023-04-25T19:52:44.463Z,5.40
2023-04-25T19:55:11.871Z,6.00
2023-04-25T19:57:39.278Z,5.62
2023-04-25T20:00:10.604Z,6.12
2023-04-25T20:02:39.567Z,6.10
2023-04-25T20:05:08.137Z,7.03
2023-04-25T20:07:35.655Z,8.27
2023-04-25T20:10:04.073Z,8.85
2023-04-25T20:12:31.651Z,8.85
2023-04-25T20:14:58.984Z,8.40
2023-04-25T20:17:26.486Z,7.90
2023-04-25T20:19:54.121Z,7.60
2023-04-25T20:22:21.491Z,7.97
2023-04-25T20:24:48.849Z,8.93
2023-04-25T20:27:16.460Z,7.35
2023-04-25T20:29:44.653Z,6.90
2023-04-25T20:32:12.298Z,8.25
2023-04-25T20:34:40.015Z,8.30
2023-04-25T20:37:08.891Z,7.15
2023-04-25T20:39:36.375Z,6.70
2023-04-25T20:42:04.073Z,6.62
2023-04-25T20:44:32.013Z,6.85
2023-04-25T20:46:59.502Z,6.15
2023-04-25T20:49:27.306Z,5.55
2023-04-25T20:51:54.686Z,6.95
2023-04-25T20:54:22.161Z,6.37
2023-04-25T20:56:51.024Z,6.03
2023-04-25T20:59:18.450Z,5.85
2023-04-25T21:01:46.143Z,6.28
2023-04-25T21:04:14.001Z,5.97
2023-04-25T21:06:41.821Z,5.60
2023-04-25T21:09:09.745Z,4.93
2023-04-25T21:11:38.433Z,5.72
2023-04-25T21:14:05.794Z,5.57
2023-04-25T21:16:35.336Z,6.35
2023-04-25T21:19:03.044Z,5.65
2023-04-25T21:21:32.215Z,5.72
2023-04-25T21:23:59.603Z,5.20
2023-04-25T21:26:27.523Z,5.97
2023-04-25T21:28:54.995Z,5.80
2023-04-25T21:31:22.549Z,6.15
2023-04-25T21:33:50.311Z,5.32
2023-04-25T21:36:17.645Z,5.60
2023-04-25T21:38:45.014Z,6.15
2023-04-25T21:41:12.690Z,6.22
2023-04-25T21:43:40.052Z,5.90
2023-04-25T21:46:22.059Z,6.05
2023-04-25T21:48:51.635Z,6.25
2023-04-25T21:51:19.537Z,5.30
2023-04-25T21:53:46.908Z,6.60
2023-04-25T21:56:14.537Z,5.85
2023-04-25T21:58:42.130Z,5.70
2023-04-25T22:01:09.981Z,5.50
2023-04-25T22:03:37.737Z,5.93
2023-04-25T22:06:05.265Z,5.07
2023-04-25T22:08:32.615Z,5.37
2023-04-25T22:11:02.699Z,5.35
2023-04-25T22:13:30.599Z,5.62
2023-04-25T22:15:59.218Z,5.75
2023-04-25T22:18:26.919Z,5.85
2023-04-25T22:20:54.594Z,5.20
2023-04-25T22:23:22.681Z,5.15
2023-04-25T22:25:50.302Z,4.95
2023-04-25T22:28:17.689Z,4.93
2023-04-25T22:30:45.071Z,5.53
2023-04-25T22:33:12.982Z,5.07
2023-04-25T22:35:40.368Z,4.97
2023-04-25T22:38:07.705Z,5.00
2023-04-25T22:40:35.488Z,6.32
2023-04-25T22:43:03.062Z,5.57
2023-04-25T22:45:30.496Z,5.75
2023-04-25T22:47:58.602Z,6.40
2023-04-25T22:50:27.053Z,5.68
2023-04-25T22:52:55.071Z,5.43
2023-04-25T22:55:22.847Z,5.60
2023-04-25T22:57:50.222Z,6.28
2023-04-25T23:00:20.282Z,5.35
2023-04-25T23:02:48.576Z,5.18
2023-04-25T23:05:16.155Z,6.47
2023-04-25T23:07:44.984Z,6.22
2023-04-25T23:10:14.077Z,5.68
2023-04-25T23:12:41.528Z,6.18
2023-04-25T23:15:10.016Z,5.78
2023-04-25T23:17:38.209Z,5.85
2023-04-25T23:20:07.564Z,5.75
2023-04-25T23:22:35.205Z,5.70
2023-04-25T23:25:02.841Z,5.55
2023-04-25T23:27:31.514Z,6.43
2023-04-25T23:29:58.904Z,6.15
2023-04-25T23:32:26.852Z,6.25
2023-04-25T23:34:54.236Z,6.22
2023-04-25T23:37:21.646Z,6.25
2023-04-25T23:39:50.640Z,6.32
2023-04-25T23:42:18.439Z,6.07
2023-04-25T23:44:45.890Z,6.15
2023-04-25T23:47:14.327Z,6.15
2023-04-25T23:49:41.885Z,6.00
2023-04-25T23:52:09.789Z,5.93
2023-04-25T23:54:37.675Z,6.15
2023-04-25T23:57:05.119Z,6.43
2023-04-25T23:59:32.538Z,7.12
